Time;durP1;ratioP1;P1;durP2;ratioP2;P2;SDS_P1;SDS_P2;PMS_P1;PMS_P2;Temp;Humidity;BMP_temperature;BMP_pressure;BME280_temperature;BME280_humidity;BME280_pressure;Samples;Min_cycle;Max_cycle;Signal;HPM_P1;HPM_P2
2022/03/27 00:00:13;;;;;;;21.63;12.77;;;8.00;31.30;;;;;;4994341;28;20247;-75
2022/03/27 00:02:41;;;;;;;20.58;12.60;;;7.90;31.70;;;;;;4996454;28;20673;-74
2022/03/27 00:05:10;;;;;;;20.23;13.00;;;7.80;31.90;;;;;;5008679;28;20209;-74
2022/03/27 00:07:37;;;;;;;24.42;13.20;;;7.80;32.80;;;;;;5014207;28;20272;-75
2022/03/27 00:10:04;;;;;;;25.25;15.35;;;7.80;33.10;;;;;;5014069;28;20402;-74
2022/03/27 00:12:32;;;;;;;22.02;14.07;;;7.70;33.30;;;;;;5014143;28;20200;-74
2022/03/27 00:15:01;;;;;;;24.65;13.88;;;7.70;34.20;;;;;;5012382;28;20212;-75
2022/03/27 00:17:29;;;;;;;25.25;13.07;;;7.70;33.80;;;;;;5006556;28;20276;-75
2022/03/27 00:19:57;;;;;;;18.90;12.10;;;7.60;33.60;;;;;;5003320;28;20215;-74
2022/03/27 00:22:26;;;;;;;21.15;12.18;;;7.60;33.80;;;;;;5003760;28;20204;-75
2022/03/27 00:24:53;;;;;;;20.75;12.98;;;7.60;33.90;;;;;;5002965;28;20212;-75
2022/03/27 00:27:19;;;;;;;23.75;12.55;;;7.60;33.80;;;;;;4999266;28;20200;-75
2022/03/27 00:29:46;;;;;;;24.25;13.20;;;7.60;34.10;;;;;;4999343;28;20232;-75
2022/03/27 00:32:13;;;;;;;17.88;12.30;;;7.60;34.30;;;;;;4999600;28;20550;-75
2022/03/27 00:34:40;;;;;;;24.45;12.88;;;7.50;34.50;;;;;;4999576;28;20215;-75
2022/03/27 00:37:09;;;;;;;20.00;12.23;;;7.50;34.60;;;;;;5001751;28;20232;-75
2022/03/27 00:39:36;;;;;;;23.42;13.88;;;7.40;35.00;;;;;;5013105;28;20200;-75
2022/03/27 00:42:03;;;;;;;22.10;12.95;;;7.30;35.20;;;;;;5014254;28;20232;-76
2022/03/27 00:44:30;;;;;;;20.30;12.07;;;7.20;35.80;;;;;;5012334;28;20280;-75
2022/03/27 00:46:58;;;;;;;18.25;12.50;;;7.20;36.10;;;;;;5010630;28;20205;-75
2022/03/27 00:49:25;;;;;;;28.35;14.30;;;7.10;36.50;;;;;;4997258;28;20311;-75
2022/03/27 00:51:52;;;;;;;24.05;14.30;;;7.00;37.60;;;;;;4997084;28;20256;-75
2022/03/27 00:54:20;;;;;;;24.75;14.02;;;6.90;37.80;;;;;;4997910;28;20538;-75
2022/03/27 00:56:47;;;;;;;23.05;13.25;;;6.80;37.70;;;;;;4996961;28;20235;-75
2022/03/27 00:59:14;;;;;;;23.77;13.60;;;6.70;37.60;;;;;;4998125;28;20211;-76
2022/03/27 01:01:42;;;;;;;25.48;14.38;;;6.60;37.70;;;;;;4997965;28;20701;-75
2022/03/27 01:04:10;;;;;;;24.05;13.00;;;6.60;38.50;;;;;;4996668;28;20578;-75
2022/03/27 01:06:39;;;;;;;26.08;13.70;;;6.60;38.00;;;;;;4997963;28;20259;-75
2022/03/27 01:11:55;;;;;;;28.48;14.38;;;6.60;38.30;;;;;;5004208;28;20251;-74
2022/03/27 01:14:31;;;;;;;31.65;14.45;;;6.60;39.20;;;;;;5003717;28;20212;-75
2022/03/27 01:17:00;;;;;;;25.92;12.95;;;6.50;39.40;;;;;;4999668;28;20254;-75
2022/03/27 01:19:27;;;;;;;22.15;13.77;;;6.40;39.70;;;;;;5001346;28;20772;-76
2022/03/27 01:21:56;;;;;;;24.73;15.02;;;6.20;40.20;;;;;;4999478;28;20224;-75
2022/03/27 01:24:22;;;;;;;22.95;13.25;;;6.30;40.30;;;;;;4997991;28;20236;-75
2022/03/27 01:26:50;;;;;;;23.17;14.10;;;6.40;40.10;;;;;;4996566;28;20565;-75
2022/03/27 01:29:17;;;;;;;27.40;14.82;;;6.30;40.20;;;;;;4996018;28;20287;-76
2022/03/27 01:31:44;;;;;;;20.85;13.73;;;6.30;40.40;;;;;;4996745;28;20723;-76
2022/03/27 01:34:12;;;;;;;24.50;13.30;;;6.30;40.40;;;;;;4996568;28;20209;-75
2022/03/27 01:36:39;;;;;;;28.98;14.35;;;6.40;40.00;;;;;;4996517;28;20208;-75
2022/03/27 01:39:08;;;;;;;23.75;13.30;;;6.40;40.20;;;;;;4996086;28;20296;-75
2022/03/27 01:41:35;;;;;;;28.58;13.98;;;6.30;40.20;;;;;;4995791;28;20319;-76
2022/03/27 01:44:02;;;;;;;23.05;13.20;;;6.20;41.10;;;;;;4995721;28;20228;-75
2022/03/27 01:46:32;;;;;;;21.92;12.52;;;6.10;40.90;;;;;;4996895;28;20239;-75
2022/03/27 01:49:01;;;;;;;26.50;14.80;;;6.20;40.60;;;;;;4996782;28;20204;-75
2022/03/27 01:51:28;;;;;;;23.80;12.50;;;6.20;40.50;;;;;;5121257;23;20247;-78
2022/03/27 01:53:56;;;;;;;20.55;12.00;;;6.20;40.40;;;;;;5011646;28;20295;-78
2022/03/27 01:56:25;;;;;;;21.40;12.32;;;6.30;40.50;;;;;;5010785;28;20204;-78
2022/03/27 01:58:52;;;;;;;24.63;13.23;;;6.20;40.60;;;;;;5011318;28;20221;-80
2022/03/27 02:01:20;;;;;;;19.88;12.30;;;6.20;40.50;;;;;;5010184;28;20221;-78
2022/03/27 02:03:47;;;;;;;20.98;11.90;;;6.20;40.60;;;;;;5002916;28;20234;-78
2022/03/27 02:06:15;;;;;;;25.15;13.30;;;6.10;40.60;;;;;;5006687;28;20666;-79
2022/03/27 02:08:43;;;;;;;24.27;13.63;;;6.10;40.90;;;;;;5010752;28;20239;-78
2022/03/27 02:11:10;;;;;;;21.75;12.02;;;6.00;41.10;;;;;;5005582;28;20234;-78
2022/03/27 02:13:39;;;;;;;23.10;13.70;;;6.00;41.40;;;;;;5008178;28;20212;-80
2022/03/27 02:16:06;;;;;;;20.13;12.35;;;6.00;41.60;;;;;;5010568;28;20232;-79
2022/03/27 02:18:34;;;;;;;28.85;13.98;;;6.00;41.90;;;;;;5009767;28;20213;-79
2022/03/27 02:21:01;;;;;;;25.10;14.05;;;5.90;41.80;;;;;;5008731;28;20282;-79
2022/03/27 02:23:29;;;;;;;21.15;13.18;;;5.90;41.90;;;;;;5008966;28;20205;-77
2022/03/27 02:25:56;;;;;;;24.45;13.60;;;5.90;42.20;;;;;;5009780;28;20209;-81
2022/03/27 02:28:24;;;;;;;22.92;13.05;;;5.80;42.40;;;;;;5002339;28;20231;-78
2022/03/27 02:30:53;;;;;;;22.42;12.20;;;5.80;42.60;;;;;;5008196;28;20339;-79
2022/03/27 02:33:20;;;;;;;22.50;13.05;;;5.90;42.70;;;;;;5011410;28;20317;-79
2022/03/27 02:35:47;;;;;;;27.33;12.45;;;5.70;42.50;;;;;;5002872;28;20300;-79
2022/03/27 02:38:14;;;;;;;24.40;13.40;;;5.80;43.00;;;;;;5003132;28;20209;-78
2022/03/27 02:40:43;;;;;;;20.83;12.20;;;5.70;42.90;;;;;;4999104;28;20751;-78
2022/03/27 02:43:11;;;;;;;21.98;12.45;;;5.70;42.90;;;;;;4999251;28;20543;-79
2022/03/27 02:45:39;;;;;;;22.48;12.23;;;5.70;43.00;;;;;;5000224;28;20259;-78
2022/03/27 02:48:08;;;;;;;22.88;12.90;;;5.60;43.20;;;;;;5003192;28;20204;-78
2022/03/27 02:50:37;;;;;;;18.05;11.30;;;5.60;43.40;;;;;;5002159;28;20251;-78
2022/03/27 02:53:04;;;;;;;23.27;12.18;;;5.50;43.60;;;;;;5002280;28;20215;-80
2022/03/27 02:55:31;;;;;;;24.98;12.85;;;5.60;43.80;;;;;;5002932;28;20240;-77
2022/03/27 02:57:58;;;;;;;22.58;12.07;;;5.60;43.70;;;;;;5001276;28;20224;-78
2022/03/27 03:00:26;;;;;;;30.52;13.63;;;5.60;44.00;;;;;;5012322;28;20244;-78
2022/03/27 03:02:53;;;;;;;20.42;12.25;;;5.50;44.10;;;;;;5012060;28;20204;-80
2022/03/27 03:05:22;;;;;;;23.23;12.85;;;5.50;44.40;;;;;;5012375;28;20243;-79
2022/03/27 03:07:50;;;;;;;23.33;13.45;;;5.40;44.50;;;;;;5012050;28;20208;-77
2022/03/27 03:10:18;;;;;;;29.35;12.90;;;5.30;45.30;;;;;;5011102;28;20232;-78
2022/03/27 03:12:45;;;;;;;27.70;12.60;;;5.30;45.10;;;;;;5005802;28;20208;-78
2022/03/27 03:15:13;;;;;;;22.20;12.70;;;5.30;45.40;;;;;;5004473;28;20209;-79
2022/03/27 03:17:43;;;;;;;24.90;12.88;;;5.40;45.10;;;;;;5013497;28;20219;-79
2022/03/27 03:20:11;;;;;;;24.15;13.82;;;5.30;46.10;;;;;;5015573;28;20205;-79
2022/03/27 03:22:41;;;;;;;22.20;11.95;;;5.30;46.10;;;;;;5016879;28;20188;-79
2022/03/27 03:25:10;;;;;;;26.30;13.40;;;5.30;46.10;;;;;;5009988;28;20214;-78
2022/03/27 03:27:38;;;;;;;17.42;12.05;;;5.20;46.10;;;;;;5008871;28;20276;-78
2022/03/27 03:30:06;;;;;;;24.67;13.48;;;5.10;46.00;;;;;;5003939;28;20227;-77
2022/03/27 03:32:36;;;;;;;26.23;11.15;;;5.10;46.00;;;;;;5000819;28;20244;-77
2022/03/27 03:35:04;;;;;;;23.45;12.55;;;5.00;46.00;;;;;;5001320;28;20215;-78
2022/03/27 03:37:31;;;;;;;19.90;13.07;;;5.00;45.90;;;;;;5010463;28;20215;-78
2022/03/27 03:40:00;;;;;;;24.98;13.35;;;5.00;46.50;;;;;;5012843;28;20192;-79
2022/03/27 03:42:27;;;;;;;21.00;11.52;;;5.00;46.80;;;;;;5016201;28;20263;-78
2022/03/27 03:44:54;;;;;;;20.38;12.43;;;5.00;46.60;;;;;;5009727;28;20212;-79
2022/03/27 03:47:21;;;;;;;20.90;11.88;;;5.00;46.50;;;;;;5011126;28;20235;-78
2022/03/27 03:49:48;;;;;;;23.88;13.52;;;5.00;46.20;;;;;;5006061;28;20212;-78
2022/03/27 03:52:15;;;;;;;21.60;11.93;;;5.00;46.60;;;;;;5006680;28;20263;-77
2022/03/27 03:54:42;;;;;;;27.92;13.85;;;5.00;47.00;;;;;;5006793;28;20208;-77
2022/03/27 03:57:10;;;;;;;23.15;12.63;;;4.90;47.50;;;;;;5004232;28;20208;-79
2022/03/27 03:59:39;;;;;;;25.52;13.38;;;4.80;48.00;;;;;;5006692;28;20259;-79
2022/03/27 04:02:07;;;;;;;24.27;12.75;;;4.70;48.20;;;;;;5008353;28;20227;-78
2022/03/27 04:04:35;;;;;;;28.02;13.57;;;4.60;48.80;;;;;;5012361;28;20269;-78
2022/03/27 04:07:04;;;;;;;23.85;13.35;;;4.70;49.00;;;;;;5012762;28;20207;-79
2022/03/27 04:09:31;;;;;;;22.15;13.13;;;4.80;48.90;;;;;;5006713;28;20275;-79
2022/03/27 04:11:58;;;;;;;26.17;12.95;;;4.80;48.70;;;;;;5012656;28;20236;-78
2022/03/27 04:14:26;;;;;;;22.40;13.55;;;4.80;48.80;;;;;;5014663;28;20208;-78
2022/03/27 04:16:53;;;;;;;22.15;13.35;;;4.80;48.50;;;;;;5015167;28;20238;-79
2022/03/27 04:19:20;;;;;;;20.25;11.57;;;4.80;48.90;;;;;;5009957;28;20276;-79
2022/03/27 04:21:47;;;;;;;26.38;13.60;;;4.80;48.90;;;;;;5007942;28;20640;-79
2022/03/27 04:24:15;;;;;;;19.55;12.55;;;4.70;49.10;;;;;;5000544;28;20213;-79
2022/03/27 04:26:42;;;;;;;26.23;13.57;;;4.60;49.40;;;;;;4998346;28;20213;-80
2022/03/27 04:29:10;;;;;;;24.80;12.52;;;4.60;50.30;;;;;;4997700;28;20208;-78
2022/03/27 04:31:39;;;;;;;21.60;12.38;;;4.60;50.00;;;;;;4997580;28;20278;-79
2022/03/27 04:34:06;;;;;;;17.23;12.25;;;4.60;49.80;;;;;;4998429;28;20210;-79
2022/03/27 04:36:33;;;;;;;25.08;12.98;;;4.60;49.90;;;;;;4998567;28;20263;-79
2022/03/27 04:39:01;;;;;;;26.85;12.85;;;4.60;50.20;;;;;;4998185;28;20204;-79
2022/03/27 04:41:27;;;;;;;24.17;12.13;;;4.60;50.30;;;;;;4998184;28;20712;-79
2022/03/27 04:43:54;;;;;;;21.55;13.05;;;4.60;49.90;;;;;;4999003;28;20300;-79
2022/03/27 04:46:21;;;;;;;21.33;11.93;;;4.70;49.50;;;;;;5006442;28;20274;-78
2022/03/27 04:48:50;;;;;;;21.60;13.45;;;4.80;49.00;;;;;;5006084;28;20264;-78
2022/03/27 04:51:17;;;;;;;28.48;15.10;;;4.70;49.10;;;;;;5008340;28;20304;-77
2022/03/27 04:53:44;;;;;;;31.90;15.32;;;4.70;49.20;;;;;;5010378;28;20236;-78
2022/03/27 04:56:11;;;;;;;17.92;11.73;;;4.70;48.90;;;;;;5010198;28;20304;-78
2022/03/27 04:58:38;;;;;;;21.77;12.27;;;4.80;48.90;;;;;;5012154;28;20213;-78
2022/03/27 05:01:05;;;;;;;27.83;13.75;;;4.80;48.50;;;;;;5012179;28;20596;-79
2022/03/27 05:03:32;;;;;;;22.27;12.70;;;4.80;48.40;;;;;;5013013;28;20224;-78
2022/03/27 05:06:00;;;;;;;25.35;12.85;;;4.70;48.30;;;;;;5013511;28;20209;-77
2022/03/27 05:08:28;;;;;;;20.92;12.20;;;4.70;48.80;;;;;;5012803;28;20219;-78
2022/03/27 05:10:55;;;;;;;26.13;11.70;;;4.70;49.00;;;;;;5012636;28;20229;-79
2022/03/27 05:13:22;;;;;;;18.77;12.15;;;4.70;49.00;;;;;;5013100;28;20232;-77
2022/03/27 05:15:52;;;;;;;20.92;11.43;;;4.70;49.20;;;;;;5013094;28;20200;-78
2022/03/27 05:18:19;;;;;;;20.48;13.05;;;4.70;49.10;;;;;;5014984;28;20216;-79
2022/03/27 05:20:46;;;;;;;20.77;12.07;;;4.70;48.90;;;;;;5015052;28;20228;-78
2022/03/27 05:23:14;;;;;;;23.90;11.75;;;4.90;48.60;;;;;;5013874;28;20280;-79
2022/03/27 05:25:42;;;;;;;24.27;11.35;;;5.00;48.00;;;;;;5016097;28;20212;-78
2022/03/27 05:28:10;;;;;;;21.30;12.20;;;5.10;47.10;;;;;;5018222;28;20195;-78
2022/03/27 05:30:38;;;;;;;23.98;12.32;;;5.10;47.00;;;;;;5020516;28;20216;-78
2022/03/27 05:33:06;;;;;;;18.50;11.98;;;5.10;47.00;;;;;;5019734;28;20258;-79
2022/03/27 05:35:33;;;;;;;18.83;10.95;;;5.10;47.10;;;;;;5015069;28;20218;-79
2022/03/27 05:38:01;;;;;;;18.42;11.32;;;5.20;47.50;;;;;;5011988;28;20212;-79
2022/03/27 05:40:30;;;;;;;26.23;12.68;;;5.20;47.30;;;;;;5009608;28;20228;-79
2022/03/27 05:42:57;;;;;;;20.33;12.05;;;5.30;47.30;;;;;;5013954;28;20279;-78
2022/03/27 05:45:25;;;;;;;21.65;11.25;;;5.40;47.00;;;;;;5018790;28;20201;-79
2022/03/27 05:47:53;;;;;;;29.55;13.35;;;5.50;46.30;;;;;;5016585;28;20215;-79
2022/03/27 05:50:22;;;;;;;21.45;11.70;;;5.70;46.50;;;;;;5012643;28;20207;-79
2022/03/27 05:52:50;;;;;;;25.45;12.50;;;5.60;46.40;;;;;;5011196;28;20223;-78
2022/03/27 05:55:18;;;;;;;26.00;12.65;;;5.60;46.40;;;;;;5005306;28;20287;-79
2022/03/27 05:57:46;;;;;;;22.13;11.98;;;5.70;46.50;;;;;;5003999;28;20661;-79
2022/03/27 06:00:16;;;;;;;19.55;11.80;;;5.70;46.50;;;;;;5005480;28;20243;-78
2022/03/27 06:02:43;;;;;;;26.48;11.60;;;5.60;46.40;;;;;;5012879;28;20212;-78
2022/03/27 06:05:11;;;;;;;25.50;12.85;;;5.60;46.40;;;;;;5010407;28;20209;-79
2022/03/27 06:07:45;;;;;;;19.48;12.35;;;5.70;46.50;;;;;;5008560;28;20216;-82
2022/03/27 06:10:14;;;;;;;20.35;12.80;;;5.60;46.40;;;;;;5007990;28;20672;-80
2022/03/27 06:12:43;;;;;;;24.80;12.35;;;5.70;46.50;;;;;;5007263;28;20248;-79
2022/03/27 06:15:12;;;;;;;18.83;11.85;;;5.60;46.40;;;;;;5002003;28;20220;-79
2022/03/27 06:17:42;;;;;;;25.00;12.90;;;5.60;46.40;;;;;;5002891;28;20221;-79
2022/03/27 06:20:14;;;;;;;21.00;13.65;;;5.70;46.50;;;;;;5001552;28;20212;-79
2022/03/27 06:22:42;;;;;;;25.95;12.98;;;5.80;46.60;;;;;;5001541;28;20213;-78
2022/03/27 06:25:10;;;;;;;21.85;12.77;;;5.90;46.70;;;;;;5001939;28;20211;-78
2022/03/27 06:27:37;;;;;;;22.52;13.35;;;6.00;46.70;;;;;;5001515;28;20204;-78
2022/03/27 06:30:06;;;;;;;22.02;12.02;;;6.00;46.80;;;;;;5001792;28;20240;-79
2022/03/27 06:32:36;;;;;;;20.85;11.85;;;6.20;46.30;;;;;;5004930;28;20291;-78
2022/03/27 06:35:04;;;;;;;23.67;13.02;;;6.20;45.60;;;;;;5011090;28;20301;-78
2022/03/27 06:37:32;;;;;;;21.75;13.00;;;6.40;45.40;;;;;;5007474;28;20212;-78
2022/03/27 06:39:59;;;;;;;19.20;12.13;;;6.40;45.10;;;;;;5009782;28;20209;-79
2022/03/27 06:42:28;;;;;;;20.73;12.07;;;6.50;45.10;;;;;;5010729;28;20224;-78
2022/03/27 06:44:56;;;;;;;19.13;11.10;;;6.60;44.90;;;;;;5008374;28;20212;-80
2022/03/27 06:47:28;;;;;;;21.92;12.27;;;6.70;44.60;;;;;;5009608;28;20209;-78
2022/03/27 06:49:58;;;;;;;23.95;12.10;;;6.90;44.20;;;;;;5004691;28;20216;-79
2022/03/27 06:52:26;;;;;;;23.85;12.63;;;7.00;43.80;;;;;;5008167;28;20363;-78
2022/03/27 06:54:54;;;;;;;26.75;12.63;;;7.20;43.40;;;;;;5010598;28;20288;-79
2022/03/27 06:57:22;;;;;;;23.67;12.50;;;7.30;43.00;;;;;;5008841;28;20204;-78
2022/03/27 07:05:22;;;;;;;22.52;12.77;;;7.70;42.00;;;;;;5004929;28;20237;-79
2022/03/27 07:07:49;;;;;;;27.23;13.63;;;7.80;41.20;;;;;;5004955;28;20216;-79
2022/03/27 07:10:17;;;;;;;26.52;13.20;;;8.00;41.00;;;;;;5005023;28;20293;-79
2022/03/27 07:12:45;;;;;;;23.33;12.52;;;8.10;40.40;;;;;;5001490;28;20232;-79
2022/03/27 07:15:13;;;;;;;19.95;12.50;;;8.20;40.00;;;;;;5002451;28;20621;-77
2022/03/27 07:17:50;;;;;;;21.35;11.65;;;8.40;40.00;;;;;;5000027;28;20693;-79
2022/03/27 07:20:20;;;;;;;21.08;11.90;;;8.50;39.90;;;;;;5002229;28;20271;-78
2022/03/27 07:22:48;;;;;;;20.73;12.50;;;8.60;39.30;;;;;;5001311;28;20220;-78
2022/03/27 07:25:16;;;;;;;25.27;13.75;;;8.70;39.40;;;;;;5000255;28;20212;-78
2022/03/27 07:27:43;;;;;;;23.83;12.30;;;8.90;39.50;;;;;;4999251;28;20240;-79
2022/03/27 07:30:11;;;;;;;24.13;13.20;;;9.00;39.60;;;;;;4999385;28;20240;-78
2022/03/27 07:32:39;;;;;;;26.45;13.43;;;9.20;39.70;;;;;;5002288;28;20256;-77
2022/03/27 07:35:08;;;;;;;22.90;11.98;;;9.40;38.90;;;;;;5001658;28;20619;-78
2022/03/27 07:37:37;;;;;;;21.98;13.52;;;9.60;38.40;;;;;;5001601;28;20216;-78
2022/03/27 07:40:08;;;;;;;23.60;12.88;;;9.60;38.10;;;;;;4983282;28;20209;-76
2022/03/27 07:42:36;;;;;;;20.00;12.82;;;9.70;37.80;;;;;;4987175;28;20286;-77
2022/03/27 07:45:04;;;;;;;23.05;12.93;;;9.80;37.50;;;;;;4994597;28;20284;-77
2022/03/27 07:47:32;;;;;;;25.60;13.32;;;9.90;37.20;;;;;;4994475;28;20213;-77
2022/03/27 07:49:59;;;;;;;22.02;12.25;;;10.10;35.90;;;;;;4991872;28;20234;-78
2022/03/27 07:52:27;;;;;;;22.13;13.38;;;10.30;35.60;;;;;;4992942;28;20229;-78
2022/03/27 07:54:56;;;;;;;21.90;12.45;;;10.50;35.30;;;;;;4994652;28;20224;-77
2022/03/27 07:57:23;;;;;;;25.60;14.20;;;10.60;35.10;;;;;;4994462;28;20244;-78
2022/03/27 07:59:50;;;;;;;17.98;13.07;;;10.70;34.60;;;;;;4994791;28;20252;-77
2022/03/27 08:02:18;;;;;;;19.60;12.13;;;10.90;34.30;;;;;;4992269;28;20319;-78
2022/03/27 08:04:45;;;;;;;27.70;13.77;;;10.90;34.20;;;;;;4990197;28;20209;-78
2022/03/27 08:07:13;;;;;;;22.95;13.73;;;11.00;34.40;;;;;;4990450;28;20227;-79
2022/03/27 08:09:42;;;;;;;22.23;13.25;;;11.10;33.80;;;;;;4986880;28;20217;-78
2022/03/27 08:22:33;;;;;;;20.88;11.77;;;11.80;31.10;;;;;;5069166;23;20240;-74
2022/03/27 08:25:00;;;;;;;21.60;11.93;;;11.90;31.20;;;;;;4984513;28;20284;-74
2022/03/27 08:27:27;;;;;;;20.02;12.93;;;12.10;31.40;;;;;;4987331;28;20276;-75
2022/03/27 08:29:54;;;;;;;18.48;12.90;;;12.20;31.50;;;;;;4982550;28;20279;-74
2022/03/27 08:32:21;;;;;;;20.30;12.80;;;12.30;30.40;;;;;;4977645;28;20221;-75
2022/03/27 08:34:49;;;;;;;18.55;12.45;;;12.40;29.50;;;;;;4979303;28;20649;-75
2022/03/27 08:37:18;;;;;;;16.15;11.35;;;12.50;30.80;;;;;;5071666;23;20262;-79
2022/03/27 08:39:46;;;;;;;24.90;12.63;;;12.80;29.90;;;;;;5005537;28;20209;-77
2022/03/27 08:42:16;;;;;;;21.70;12.93;;;12.70;29.80;;;;;;5011718;28;20233;-78
2022/03/27 08:44:43;;;;;;;21.95;12.90;;;12.80;29.10;;;;;;5007755;28;20680;-78
2022/03/27 08:47:18;;;;;;;22.00;13.32;;;12.80;28.80;;;;;;5005965;28;20278;-78
2022/03/27 08:49:53;;;;;;;21.30;12.95;;;12.90;29.30;;;;;;5004052;28;20212;-81
2022/03/27 08:52:42;;;;;;;17.23;11.93;;;13.10;28.90;;;;;;5004057;28;20234;-78
2022/03/27 08:55:19;;;;;;;20.98;11.90;;;13.10;28.80;;;;;;5006987;28;20220;-78
2022/03/27 08:57:55;;;;;;;21.23;12.27;;;13.30;28.30;;;;;;5006494;28;20212;-79
2022/03/27 09:00:23;;;;;;;16.70;12.13;;;13.40;28.10;;;;;;5009322;28;20200;-77
2022/03/27 09:02:51;;;;;;;19.00;11.50;;;13.50;28.20;;;;;;5009360;28;20219;-77
2022/03/27 09:05:20;;;;;;;22.08;12.80;;;13.70;28.20;;;;;;5009884;28;20207;-79
2022/03/27 09:07:48;;;;;;;28.13;12.30;;;13.90;27.60;;;;;;5010083;28;20327;-77
2022/03/27 09:10:18;;;;;;;23.60;13.00;;;14.00;27.40;;;;;;5010296;28;20899;-76
2022/03/27 09:12:46;;;;;;;17.90;10.93;;;14.10;27.30;;;;;;5007895;28;20513;-78
2022/03/27 09:15:13;;;;;;;17.67;11.47;;;14.40;27.00;;;;;;5010905;28;20494;-76
2022/03/27 09:17:58;;;;;;;21.00;12.40;;;14.60;26.50;;;;;;5011427;28;20446;-79
2022/03/27 09:20:38;;;;;;;20.83;12.83;;;14.90;26.00;;;;;;5015424;28;20441;-75
2022/03/27 09:23:21;;;;;;;19.67;11.97;;;15.00;26.00;;;;;;5018271;28;20485;-78
2022/03/27 09:25:55;;;;;;;20.80;12.10;;;14.80;25.90;;;;;;5018261;28;20479;-78
2022/03/27 09:28:24;;;;;;;18.70;11.20;;;14.90;25.90;;;;;;5016098;28;20437;-76
2022/03/27 09:30:51;;;;;;;17.90;12.00;;;15.10;25.70;;;;;;5002387;28;20833;-77
2022/03/27 09:33:38;;;;;;;23.23;12.67;;;15.30;25.50;;;;;;5001591;28;20458;-77
2022/03/27 09:36:09;;;;;;;18.80;11.80;;;15.50;25.70;;;;;;5002877;28;20490;-79
2022/03/27 09:38:38;;;;;;;16.90;11.30;;;15.70;25.80;;;;;;5003346;28;20448;-80
2022/03/27 09:41:08;;;;;;;19.57;13.37;;;15.80;25.60;;;;;;5002692;28;20465;-78
2022/03/27 09:43:35;;;;;;;19.00;12.80;;;15.90;25.50;;;;;;5004280;28;20484;-76
2022/03/27 09:46:03;;;;;;;20.80;12.27;;;15.90;25.20;;;;;;5007315;28;20543;-80
2022/03/27 09:48:31;;;;;;;23.10;12.03;;;16.00;25.20;;;;;;5006519;28;20456;-76
2022/03/27 09:51:00;;;;;;;19.60;11.77;;;16.10;24.90;;;;;;5001071;28;20422;-76
2022/03/27 09:53:29;;;;;;;22.37;12.80;;;16.20;25.00;;;;;;5003754;28;20534;-78
2022/03/27 09:58:52;;;;;;;16.77;12.07;;;16.30;24.00;;;;;;5114014;27;20623;-80
2022/03/27 10:01:22;;;;;;;18.73;11.13;;;16.60;23.80;;;;;;5120887;28;20517;-78
2022/03/27 10:04:01;;;;;;;22.80;12.53;;;16.60;23.50;;;;;;5100805;28;20474;-78
2022/03/27 10:06:30;;;;;;;17.13;11.20;;;16.20;24.30;;;;;;5100363;28;20986;-78
2022/03/27 10:08:58;;;;;;;20.90;11.73;;;16.40;24.90;;;;;;5123885;28;20446;-76
2022/03/27 10:11:26;;;;;;;18.53;11.40;;;16.60;24.10;;;;;;5120764;22;20496;-75
2022/03/27 10:13:55;;;;;;;17.00;11.47;;;16.70;23.90;;;;;;5078078;28;20491;-74
2022/03/27 10:16:28;;;;;;;17.87;11.60;;;16.50;24.30;;;;;;5083783;28;20430;-76
2022/03/27 10:18:58;;;;;;;17.60;12.00;;;16.80;23.90;;;;;;5072406;28;20491;-77
2022/03/27 10:21:26;;;;;;;18.73;11.53;;;16.90;23.80;;;;;;5070623;28;20469;-74
2022/03/27 10:24:01;;;;;;;18.87;11.90;;;17.20;23.70;;;;;;5067646;28;20911;-74
2022/03/27 10:26:30;;;;;;;18.07;11.27;;;17.40;22.80;;;;;;5060319;28;20443;-77
2022/03/27 10:29:00;;;;;;;20.63;11.80;;;17.30;22.90;;;;;;5051453;28;20506;-76
2022/03/27 10:31:27;;;;;;;23.00;12.40;;;17.10;23.20;;;;;;5051997;28;20451;-76
2022/03/27 10:33:58;;;;;;;19.67;11.73;;;17.10;23.80;;;;;;5060340;28;20430;-76
2022/03/27 10:36:34;;;;;;;18.30;10.43;;;17.30;23.40;;;;;;5074583;28;20912;-76
2022/03/27 10:39:10;;;;;;;19.10;11.27;;;17.30;23.30;;;;;;5071663;28;20531;-75
2022/03/27 10:41:43;;;;;;;21.03;11.13;;;17.40;23.00;;;;;;5075193;28;20566;-76
2022/03/27 10:44:20;;;;;;;19.33;11.40;;;17.60;22.40;;;;;;5069228;28;20436;-77
2022/03/27 10:47:13;;;;;;;19.97;12.67;;;17.80;21.80;;;;;;5058132;28;20855;-74
2022/03/27 10:49:41;;;;;;;30.73;11.27;;;17.80;22.10;;;;;;5075674;28;20422;-80
2022/03/27 10:52:09;;;;;;;19.33;11.47;;;18.00;22.40;;;;;;5080773;28;20465;-78
2022/03/27 10:54:59;;;;;;;21.80;12.20;;;17.60;22.40;;;;;;5079674;28;20464;-79
2022/03/27 10:57:31;;;;;;;18.87;11.57;;;17.60;22.70;;;;;;5082245;28;20460;-78
2022/03/27 10:59:59;;;;;;;16.63;11.30;;;17.50;22.50;;;;;;5086387;28;20431;-78
2022/03/27 11:02:45;;;;;;;21.07;12.00;;;17.70;22.00;;;;;;5088431;28;20483;-79
2022/03/27 11:05:54;;;;;;;18.77;10.80;;;18.00;21.50;;;;;;5088244;28;20441;-79
2022/03/27 11:08:47;;;;;;;17.27;10.47;;;18.30;21.60;;;;;;5065502;28;20521;-77
2022/03/27 11:12:00;;;;;;;20.20;11.13;;;18.30;19.70;;;;;;5055719;28;20470;-78
2022/03/27 11:14:55;;;;;;;19.73;9.83;;;18.00;20.50;;;;;;5073457;28;20480;-79
2022/03/27 11:17:41;;;;;;;15.43;11.33;;;18.30;20.40;;;;;;5061840;28;20826;-78
2022/03/27 11:20:10;;;;;;;14.97;10.67;;;18.60;20.30;;;;;;5072746;28;20452;-79
2022/03/27 11:22:49;;;;;;;18.07;10.57;;;18.70;19.70;;;;;;5073283;28;20510;-79
2022/03/27 11:25:35;;;;;;;22.00;10.13;;;18.80;19.80;;;;;;5061721;28;20970;-79
2022/03/27 11:28:11;;;;;;;17.20;11.10;;;18.40;19.50;;;;;;5068666;28;20479;-78
2022/03/27 11:30:40;;;;;;;15.60;9.83;;;18.50;19.60;;;;;;5063938;28;20469;-79
2022/03/27 11:33:18;;;;;;;21.70;11.30;;;18.70;19.70;;;;;;5072361;28;20457;-77
2022/03/27 11:36:18;;;;;;;14.07;10.63;;;18.80;19.00;;;;;;5061900;28;20794;-76
2022/03/27 11:39:02;;;;;;;15.47;10.37;;;18.70;19.70;;;;;;5061031;28;20485;-78
2022/03/27 11:41:38;;;;;;;16.73;9.77;;;18.90;19.60;;;;;;5061878;28;20460;-78
2022/03/27 11:44:23;;;;;;;17.17;10.70;;;19.10;18.70;;;;;;5065595;28;20454;-77
2022/03/27 11:46:52;;;;;;;19.80;10.23;;;18.90;18.80;;;;;;5058327;28;20514;-75
2022/03/27 11:49:24;;;;;;;16.67;10.67;;;18.80;19.80;;;;;;5057687;28;20445;-74
2022/03/27 11:52:05;;;;;;;18.07;9.80;;;18.80;19.80;;;;;;5057652;28;20493;-75
2022/03/27 11:54:32;;;;;;;16.00;10.40;;;18.90;19.90;;;;;;5057109;28;20423;-76
2022/03/27 11:57:02;;;;;;;15.43;10.00;;;19.00;18.90;;;;;;5061104;28;20460;-76
2022/03/27 11:59:31;;;;;;;16.77;10.10;;;18.90;19.30;;;;;;5060659;28;21002;-74
2022/03/27 12:02:00;;;;;;;15.30;9.70;;;19.30;18.90;;;;;;5059136;28;20538;-75
2022/03/27 12:04:29;;;;;;;14.40;10.67;;;19.50;18.50;;;;;;5066565;28;20491;-76
2022/03/27 12:06:56;;;;;;;14.03;8.63;;;19.30;19.00;;;;;;5071237;28;20460;-76
2022/03/27 12:09:25;;;;;;;15.00;10.10;;;19.40;18.50;;;;;;5067288;28;20862;-76
2022/03/27 12:12:05;;;;;;;18.73;11.00;;;19.50;18.50;;;;;;5073834;28;20551;-75
2022/03/27 12:14:32;;;;;;;20.07;10.70;;;19.50;18.90;;;;;;5062480;28;20845;-76
2022/03/27 12:16:59;;;;;;;17.33;10.40;;;19.30;18.60;;;;;;5059885;28;20468;-76
2022/03/27 12:19:26;;;;;;;23.70;10.83;;;19.30;18.60;;;;;;5061037;28;20471;-76
2022/03/27 12:21:54;;;;;;;17.47;11.03;;;19.40;18.30;;;;;;5057244;28;20567;-77
2022/03/27 12:24:21;;;;;;;20.53;11.30;;;19.60;18.00;;;;;;5059684;28;20543;-76
2022/03/27 12:29:43;;;;;;;19.23;10.80;;;19.80;17.90;;;;;;5068145;28;20490;-76
2022/03/27 12:32:14;;;;;;;18.60;11.60;;;19.60;18.40;;;;;;5062322;28;20614;-75
2022/03/27 12:34:43;;;;;;;19.43;10.50;;;19.50;18.00;;;;;;5074247;28;20456;-76
2022/03/27 12:37:16;;;;;;;16.73;10.70;;;19.60;17.80;;;;;;5063007;28;20438;-75
2022/03/27 12:40:05;;;;;;;18.67;11.03;;;19.50;17.90;;;;;;5059661;28;20449;-75
2022/03/27 12:42:35;;;;;;;17.10;10.90;;;19.40;18.00;;;;;;5061467;28;20475;-76
2022/03/27 12:45:07;;;;;;;18.87;10.53;;;19.60;18.10;;;;;;5058062;28;20433;-76
2022/03/27 12:47:36;;;;;;;17.93;11.33;;;19.80;17.70;;;;;;5044161;28;20450;-75
2022/03/27 12:50:05;;;;;;;15.40;9.53;;;19.90;17.20;;;;;;5037496;28;20486;-75
2022/03/27 12:52:35;;;;;;;16.20;11.20;;;20.10;17.30;;;;;;5036781;28;20513;-76
2022/03/27 12:55:05;;;;;;;18.07;11.03;;;19.80;17.50;;;;;;5043256;28;20449;-77
2022/03/27 12:57:53;;;;;;;18.87;10.73;;;19.90;17.60;;;;;;5056057;28;20427;-76
2022/03/27 13:00:21;;;;;;;19.00;10.43;;;19.80;17.70;;;;;;5054887;28;20439;-77
2022/03/27 13:02:48;;;;;;;18.00;9.50;;;19.90;17.40;;;;;;5039617;28;21116;-76
2022/03/27 13:05:16;;;;;;;17.07;10.97;;;20.10;17.20;;;;;;5040841;28;20459;-76
2022/03/27 13:07:58;;;;;;;15.83;10.23;;;20.40;16.70;;;;;;5060171;28;20485;-77
2022/03/27 13:10:26;;;;;;;16.07;9.33;;;20.30;16.70;;;;;;5055028;28;20461;-77